sensor_id;sensor_type;location;lat;lon;timestamp;temperature;humidity
3134;DHT22;1577;49.912;10.924;2023-03-05T00:01:04;4.40;99.90
3134;DHT22;1577;49.912;10.924;2023-03-05T00:03:30;4.50;99.90
3134;DHT22;1577;49.912;10.924;2023-03-05T00:05:56;4.50;99.90
3134;DHT22;1577;49.912;10.924;2023-03-05T00:08:22;4.50;99.90
3134;DHT22;1577;49.912;10.924;2023-03-05T00:10:55;4.40;99.90
3134;DHT22;1577;49.912;10.924;2023-03-05T00:13:21;4.40;99.90
3134;DHT22;1577;49.912;10.924;2023-03-05T00:15:46;4.30;99.90
3134;DHT22;1577;49.912;10.924;2023-03-05T00:18:12;4.40;99.90
3134;DHT22;1577;49.912;10.924;2023-03-05T00:20:38;4.30;99.90
3134;DHT22;1577;49.912;10.924;2023-03-05T00:23:04;4.30;99.90
3134;DHT22;1577;49.912;10.924;2023-03-05T00:25:29;4.30;99.90
3134;DHT22;1577;49.912;10.924;2023-03-05T00:27:55;4.30;99.90
3134;DHT22;1577;49.912;10.924;2023-03-05T00:30:20;4.30;99.90
3134;DHT22;1577;49.912;10.924;2023-03-05T00:32:46;4.30;99.90
3134;DHT22;1577;49.912;10.924;2023-03-05T00:35:11;4.20;99.90
3134;DHT22;1577;49.912;10.924;2023-03-05T00:37:37;4.10;99.90
3134;DHT22;1577;49.912;10.924;2023-03-05T00:40:04;4.20;99.90
3134;DHT22;1577;49.912;10.924;2023-03-05T00:42:29;4.20;99.90
3134;DHT22;1577;49.912;10.924;2023-03-05T00:44:55;4.10;99.90
3134;DHT22;1577;49.912;10.924;2023-03-05T00:47:20;4.10;99.90
3134;DHT22;1577;49.912;10.924;2023-03-05T00:49:46;4.10;99.90
3134;DHT22;1577;49.912;10.924;2023-03-05T00:52:12;4.20;99.90
3134;DHT22;1577;49.912;10.924;2023-03-05T00:54:37;4.20;99.90
3134;DHT22;1577;49.912;10.924;2023-03-05T00:57:03;4.20;99.90
3134;DHT22;1577;49.912;10.924;2023-03-05T00:59:30;4.20;99.90
3134;DHT22;1577;49.912;10.924;2023-03-05T01:01:55;4.20;99.90
3134;DHT22;1577;49.912;10.924;2023-03-05T01:04:21;4.10;99.90
3134;DHT22;1577;49.912;10.924;2023-03-05T01:06:46;4.00;99.90
3134;DHT22;1577;49.912;10.924;2023-03-05T01:09:12;4.00;99.90
3134;DHT22;1577;49.912;10.924;2023-03-05T01:11:38;4.00;99.90
3134;DHT22;1577;49.912;10.924;2023-03-05T01:14:04;4.00;99.90
3134;DHT22;1577;49.912;10.924;2023-03-05T01:16:30;4.00;99.90
3134;DHT22;1577;49.912;10.924;2023-03-05T01:18:55;3.90;99.90
3134;DHT22;1577;49.912;10.924;2023-03-05T01:21:21;3.90;99.90
3134;DHT22;1577;49.912;10.924;2023-03-05T01:23:47;3.90;99.90
3134;DHT22;1577;49.912;10.924;2023-03-05T01:26:12;3.80;99.90
3134;DHT22;1577;49.912;10.924;2023-03-05T01:28:38;3.80;99.90
3134;DHT22;1577;49.912;10.924;2023-03-05T01:31:08;3.80;99.90
3134;DHT22;1577;49.912;10.924;2023-03-05T01:33:34;3.80;99.90
3134;DHT22;1577;49.912;10.924;2023-03-05T01:36:00;3.90;99.90
3134;DHT22;1577;49.912;10.924;2023-03-05T01:38:26;3.80;99.90
3134;DHT22;1577;49.912;10.924;2023-03-05T01:40:51;3.70;99.90
3134;DHT22;1577;49.912;10.924;2023-03-05T01:43:28;3.70;99.90
3134;DHT22;1577;49.912;10.924;2023-03-05T01:51:39;3.70;99.90
3134;DHT22;1577;49.912;10.924;2023-03-05T01:54:08;3.70;99.90
3134;DHT22;1577;49.912;10.924;2023-03-05T01:56:35;3.70;99.90
3134;DHT22;1577;49.912;10.924;2023-03-05T01:59:01;3.70;99.90
3134;DHT22;1577;49.912;10.924;2023-03-05T02:01:31;3.70;99.90
3134;DHT22;1577;49.912;10.924;2023-03-05T02:03:58;3.70;99.90
3134;DHT22;1577;49.912;10.924;2023-03-05T02:06:24;3.70;99.90
3134;DHT22;1577;49.912;10.924;2023-03-05T02:08:49;3.70;99.90
3134;DHT22;1577;49.912;10.924;2023-03-05T02:11:15;3.80;99.90
3134;DHT22;1577;49.912;10.924;2023-03-05T02:13:41;3.80;99.90
3134;DHT22;1577;49.912;10.924;2023-03-05T02:16:06;3.90;99.90
3134;DHT22;1577;49.912;10.924;2023-03-05T02:18:32;3.90;99.90
3134;DHT22;1577;49.912;10.924;2023-03-05T02:23:28;3.80;99.90
3134;DHT22;1577;49.912;10.924;2023-03-05T02:25:55;3.90;99.90
3134;DHT22;1577;49.912;10.924;2023-03-05T02:30:58;3.80;99.90
3134;DHT22;1577;49.912;10.924;2023-03-05T02:33:24;3.80;99.90
3134;DHT22;1577;49.912;10.924;2023-03-05T02:35:50;3.80;99.90
3134;DHT22;1577;49.912;10.924;2023-03-05T02:38:17;3.70;99.90
3134;DHT22;1577;49.912;10.924;2023-03-05T02:40:44;3.80;99.90
3134;DHT22;1577;49.912;10.924;2023-03-05T02:43:10;3.90;99.90
3134;DHT22;1577;49.912;10.924;2023-03-05T02:45:36;3.90;99.90
3134;DHT22;1577;49.912;10.924;2023-03-05T02:48:02;3.90;99.90
3134;DHT22;1577;49.912;10.924;2023-03-05T02:50:28;4.00;99.90
3134;DHT22;1577;49.912;10.924;2023-03-05T02:52:54;3.90;99.90
3134;DHT22;1577;49.912;10.924;2023-03-05T02:55:20;3.90;99.90
3134;DHT22;1577;49.912;10.924;2023-03-05T02:57:45;3.90;99.90
3134;DHT22;1577;49.912;10.924;2023-03-05T03:00:11;3.90;99.90
3134;DHT22;1577;49.912;10.924;2023-03-05T03:02:37;3.80;99.90
3134;DHT22;1577;49.912;10.924;2023-03-05T03:05:03;3.90;99.90
3134;DHT22;1577;49.912;10.924;2023-03-05T03:07:29;3.80;99.90
3134;DHT22;1577;49.912;10.924;2023-03-05T03:09:54;3.80;99.90
3134;DHT22;1577;49.912;10.924;2023-03-05T03:12:20;3.90;99.90
3134;DHT22;1577;49.912;10.924;2023-03-05T03:14:46;3.90;99.90
3134;DHT22;1577;49.912;10.924;2023-03-05T03:17:14;3.80;99.90
3134;DHT22;1577;49.912;10.924;2023-03-05T03:19:40;3.80;99.90
3134;DHT22;1577;49.912;10.924;2023-03-05T03:22:08;3.80;99.90
3134;DHT22;1577;49.912;10.924;2023-03-05T03:24:37;3.90;99.90
3134;DHT22;1577;49.912;10.924;2023-03-05T03:27:03;3.90;99.90
3134;DHT22;1577;49.912;10.924;2023-03-05T03:29:29;3.90;99.90
3134;DHT22;1577;49.912;10.924;2023-03-05T03:31:55;3.80;99.90
3134;DHT22;1577;49.912;10.924;2023-03-05T03:34:21;3.70;99.90
3134;DHT22;1577;49.912;10.924;2023-03-05T03:36:48;3.70;99.90
3134;DHT22;1577;49.912;10.924;2023-03-05T03:39:14;3.90;99.90
3134;DHT22;1577;49.912;10.924;2023-03-05T03:41:47;3.90;99.90
3134;DHT22;1577;49.912;10.924;2023-03-05T03:44:13;3.90;99.90
3134;DHT22;1577;49.912;10.924;2023-03-05T03:46:39;3.90;99.90
3134;DHT22;1577;49.912;10.924;2023-03-05T03:49:06;3.90;99.90
3134;DHT22;1577;49.912;10.924;2023-03-05T03:51:35;3.90;99.90
3134;DHT22;1577;49.912;10.924;2023-03-05T03:54:00;3.90;99.90
3134;DHT22;1577;49.912;10.924;2023-03-05T03:56:26;3.90;99.90
3134;DHT22;1577;49.912;10.924;2023-03-05T03:58:52;3.90;99.90
3134;DHT22;1577;49.912;10.924;2023-03-05T04:01:21;3.80;99.90
3134;DHT22;1577;49.912;10.924;2023-03-05T04:03:47;3.80;99.90
3134;DHT22;1577;49.912;10.924;2023-03-05T04:06:13;3.80;99.90
3134;DHT22;1577;49.912;10.924;2023-03-05T04:08:39;3.90;99.90
3134;DHT22;1577;49.912;10.924;2023-03-05T04:11:05;3.80;99.90
3134;DHT22;1577;49.912;10.924;2023-03-05T04:13:31;3.80;99.90
3134;DHT22;1577;49.912;10.924;2023-03-05T04:15:57;3.90;99.90
3134;DHT22;1577;49.912;10.924;2023-03-05T04:18:23;3.90;99.90
3134;DHT22;1577;49.912;10.924;2023-03-05T04:20:49;3.90;99.90
3134;DHT22;1577;49.912;10.924;2023-03-05T04:23:15;3.80;99.90
3134;DHT22;1577;49.912;10.924;2023-03-05T04:25:41;3.80;99.90
3134;DHT22;1577;49.912;10.924;2023-03-05T04:28:06;3.80;99.90
3134;DHT22;1577;49.912;10.924;2023-03-05T04:30:32;3.70;99.90
3134;DHT22;1577;49.912;10.924;2023-03-05T04:32:58;3.70;99.90
3134;DHT22;1577;49.912;10.924;2023-03-05T04:35:24;3.70;99.90
3134;DHT22;1577;49.912;10.924;2023-03-05T04:37:49;3.70;99.90
3134;DHT22;1577;49.912;10.924;2023-03-05T04:40:15;3.80;99.90
3134;DHT22;1577;49.912;10.924;2023-03-05T04:42:42;3.70;99.90
3134;DHT22;1577;49.912;10.924;2023-03-05T04:45:08;3.70;99.90
3134;DHT22;1577;49.912;10.924;2023-03-05T04:47:35;3.70;99.90
3134;DHT22;1577;49.912;10.924;2023-03-05T04:50:00;3.70;99.90
3134;DHT22;1577;49.912;10.924;2023-03-05T04:52:26;3.70;99.90
3134;DHT22;1577;49.912;10.924;2023-03-05T04:54:52;3.80;99.90
3134;DHT22;1577;49.912;10.924;2023-03-05T04:57:18;3.70;99.90
3134;DHT22;1577;49.912;10.924;2023-03-05T04:59:44;3.70;99.90
3134;DHT22;1577;49.912;10.924;2023-03-05T05:02:10;3.80;99.90
3134;DHT22;1577;49.912;10.924;2023-03-05T05:04:35;3.70;99.90
3134;DHT22;1577;49.912;10.924;2023-03-05T05:07:02;3.80;99.90
3134;DHT22;1577;49.912;10.924;2023-03-05T05:09:29;3.90;99.90
3134;DHT22;1577;49.912;10.924;2023-03-05T05:11:54;3.90;99.90
3134;DHT22;1577;49.912;10.924;2023-03-05T05:14:20;3.80;99.90
3134;DHT22;1577;49.912;10.924;2023-03-05T05:16:46;3.80;99.90
3134;DHT22;1577;49.912;10.924;2023-03-05T05:19:11;3.70;99.90
3134;DHT22;1577;49.912;10.924;2023-03-05T05:21:37;3.70;99.90
3134;DHT22;1577;49.912;10.924;2023-03-05T05:24:03;3.70;99.90
3134;DHT22;1577;49.912;10.924;2023-03-05T05:26:28;3.60;99.90
3134;DHT22;1577;49.912;10.924;2023-03-05T05:28:54;3.70;99.90
3134;DHT22;1577;49.912;10.924;2023-03-05T05:31:20;3.70;99.90
3134;DHT22;1577;49.912;10.924;2023-03-05T05:33:46;3.70;99.90
3134;DHT22;1577;49.912;10.924;2023-03-05T05:36:14;3.70;99.90
3134;DHT22;1577;49.912;10.924;2023-03-05T05:38:40;3.80;99.90
3134;DHT22;1577;49.912;10.924;2023-03-05T05:41:09;3.80;99.90
3134;DHT22;1577;49.912;10.924;2023-03-05T05:43:35;3.90;99.90
3134;DHT22;1577;49.912;10.924;2023-03-05T05:46:03;3.90;99.90
3134;DHT22;1577;49.912;10.924;2023-03-05T05:48:30;3.90;99.90
3134;DHT22;1577;49.912;10.924;2023-03-05T05:50:56;3.90;99.90
3134;DHT22;1577;49.912;10.924;2023-03-05T05:53:22;3.90;99.90
3134;DHT22;1577;49.912;10.924;2023-03-05T05:55:48;3.80;99.90
3134;DHT22;1577;49.912;10.924;2023-03-05T05:58:14;3.70;99.90
3134;DHT22;1577;49.912;10.924;2023-03-05T06:00:39;3.60;99.90
3134;DHT22;1577;49.912;10.924;2023-03-05T06:03:05;3.60;99.90
3134;DHT22;1577;49.912;10.924;2023-03-05T06:05:33;3.50;99.90
3134;DHT22;1577;49.912;10.924;2023-03-05T06:07:59;3.50;99.90
3134;DHT22;1577;49.912;10.924;2023-03-05T06:10:25;3.50;99.90
3134;DHT22;1577;49.912;10.924;2023-03-05T06:12:51;3.40;99.90
3134;DHT22;1577;49.912;10.924;2023-03-05T06:15:16;3.60;99.90
3134;DHT22;1577;49.912;10.924;2023-03-05T06:17:44;3.60;99.90
3134;DHT22;1577;49.912;10.924;2023-03-05T06:20:11;3.70;99.90
3134;DHT22;1577;49.912;10.924;2023-03-05T06:22:37;3.70;99.90
3134;DHT22;1577;49.912;10.924;2023-03-05T06:25:07;3.80;99.90
3134;DHT22;1577;49.912;10.924;2023-03-05T06:27:34;3.90;99.90
3134;DHT22;1577;49.912;10.924;2023-03-05T06:30:00;3.90;99.90
3134;DHT22;1577;49.912;10.924;2023-03-05T06:32:26;3.90;99.90
3134;DHT22;1577;49.912;10.924;2023-03-05T06:34:51;3.90;99.90
3134;DHT22;1577;49.912;10.924;2023-03-05T06:37:17;4.00;99.90
3134;DHT22;1577;49.912;10.924;2023-03-05T06:39:43;4.00;99.90
3134;DHT22;1577;49.912;10.924;2023-03-05T06:42:09;4.00;99.90
3134;DHT22;1577;49.912;10.924;2023-03-05T06:44:41;3.90;99.90
3134;DHT22;1577;49.912;10.924;2023-03-05T06:47:07;4.00;99.90
3134;DHT22;1577;49.912;10.924;2023-03-05T06:49:35;4.00;99.90
3134;DHT22;1577;49.912;10.924;2023-03-05T06:52:01;4.10;99.90
3134;DHT22;1577;49.912;10.924;2023-03-05T06:54:27;4.10;99.90
3134;DHT22;1577;49.912;10.924;2023-03-05T06:56:53;4.10;99.90
3134;DHT22;1577;49.912;10.924;2023-03-05T06:59:18;4.00;99.90
3134;DHT22;1577;49.912;10.924;2023-03-05T07:01:46;4.00;99.90
3134;DHT22;1577;49.912;10.924;2023-03-05T07:04:13;4.10;99.90
3134;DHT22;1577;49.912;10.924;2023-03-05T07:06:40;4.10;99.90
3134;DHT22;1577;49.912;10.924;2023-03-05T07:09:15;4.10;99.90
3134;DHT22;1577;49.912;10.924;2023-03-05T07:11:41;4.10;99.90
3134;DHT22;1577;49.912;10.924;2023-03-05T07:14:07;4.10;99.90
3134;DHT22;1577;49.912;10.924;2023-03-05T07:16:33;4.00;99.90
3134;DHT22;1577;49.912;10.924;2023-03-05T07:19:01;4.10;99.90
3134;DHT22;1577;49.912;10.924;2023-03-05T07:21:29;4.10;99.90
3134;DHT22;1577;49.912;10.924;2023-03-05T07:23:57;4.20;99.90
3134;DHT22;1577;49.912;10.924;2023-03-05T07:26:24;4.20;99.90
3134;DHT22;1577;49.912;10.924;2023-03-05T07:28:50;4.20;99.90
3134;DHT22;1577;49.912;10.924;2023-03-05T07:31:20;4.10;99.90
3134;DHT22;1577;49.912;10.924;2023-03-05T07:33:48;4.20;99.90
3134;DHT22;1577;49.912;10.924;2023-03-05T07:36:14;4.20;99.90
3134;DHT22;1577;49.912;10.924;2023-03-05T07:38:40;4.20;99.90
3134;DHT22;1577;49.912;10.924;2023-03-05T07:41:11;4.20;99.90
3134;DHT22;1577;49.912;10.924;2023-03-05T07:43:38;4.20;99.90
3134;DHT22;1577;49.912;10.924;2023-03-05T07:46:06;4.30;99.90
3134;DHT22;1577;49.912;10.924;2023-03-05T07:48:32;4.40;99.90
3134;DHT22;1577;49.912;10.924;2023-03-05T07:51:05;4.40;99.90
3134;DHT22;1577;49.912;10.924;2023-03-05T07:53:31;4.40;99.90
3134;DHT22;1577;49.912;10.924;2023-03-05T07:55:57;4.30;99.90
3134;DHT22;1577;49.912;10.924;2023-03-05T07:58:23;4.20;99.90
3134;DHT22;1577;49.912;10.924;2023-03-05T08:00:49;4.30;99.90
3134;DHT22;1577;49.912;10.924;2023-03-05T08:03:14;4.40;99.90
3134;DHT22;1577;49.912;10.924;2023-03-05T08:05:41;4.40;99.90
3134;DHT22;1577;49.912;10.924;2023-03-05T08:08:07;4.40;99.90
3134;DHT22;1577;49.912;10.924;2023-03-05T08:10:33;4.50;99.90
3134;DHT22;1577;49.912;10.924;2023-03-05T08:12:59;4.50;99.90
3134;DHT22;1577;49.912;10.924;2023-03-05T08:15:25;4.50;99.90
3134;DHT22;1577;49.912;10.924;2023-03-05T08:17:51;4.60;99.90
3134;DHT22;1577;49.912;10.924;2023-03-05T08:20:17;4.60;99.90
3134;DHT22;1577;49.912;10.924;2023-03-05T08:22:43;4.60;99.90
3134;DHT22;1577;49.912;10.924;2023-03-05T08:25:09;4.70;99.90
3134;DHT22;1577;49.912;10.924;2023-03-05T08:27:41;4.70;99.90
3134;DHT22;1577;49.912;10.924;2023-03-05T08:30:10;4.70;99.90
3134;DHT22;1577;49.912;10.924;2023-03-05T08:32:36;4.80;99.90
3134;DHT22;1577;49.912;10.924;2023-03-05T08:35:02;4.80;99.90
3134;DHT22;1577;49.912;10.924;2023-03-05T08:37:29;4.90;99.90
3134;DHT22;1577;49.912;10.924;2023-03-05T08:39:54;4.90;99.90
3134;DHT22;1577;49.912;10.924;2023-03-05T08:42:21;4.90;99.90
3134;DHT22;1577;49.912;10.924;2023-03-05T08:44:46;5.00;99.90
3134;DHT22;1577;49.912;10.924;2023-03-05T08:47:12;5.00;99.90
3134;DHT22;1577;49.912;10.924;2023-03-05T08:49:38;5.10;99.90
3134;DHT22;1577;49.912;10.924;2023-03-05T08:52:03;5.10;99.90
3134;DHT22;1577;49.912;10.924;2023-03-05T08:54:29;5.10;99.90
3134;DHT22;1577;49.912;10.924;2023-03-05T08:56:55;5.10;99.90
3134;DHT22;1577;49.912;10.924;2023-03-05T08:59:20;5.10;99.90
3134;DHT22;1577;49.912;10.924;2023-03-05T09:01:46;5.00;99.90
3134;DHT22;1577;49.912;10.924;2023-03-05T09:04:12;5.00;99.90
3134;DHT22;1577;49.912;10.924;2023-03-05T09:06:37;5.00;99.90
3134;DHT22;1577;49.912;10.924;2023-03-05T09:09:06;5.00;99.90
3134;DHT22;1577;49.912;10.924;2023-03-05T09:11:33;5.10;99.90
3134;DHT22;1577;49.912;10.924;2023-03-05T09:14:04;5.10;99.90
3134;DHT22;1577;49.912;10.924;2023-03-05T09:16:30;5.10;99.90
3134;DHT22;1577;49.912;10.924;2023-03-05T09:18:58;5.10;99.90
3134;DHT22;1577;49.912;10.924;2023-03-05T09:21:24;5.00;99.90
3134;DHT22;1577;49.912;10.924;2023-03-05T09:23:49;5.10;99.90
3134;DHT22;1577;49.912;10.924;2023-03-05T09:26:16;5.20;99.90
3134;DHT22;1577;49.912;10.924;2023-03-05T09:28:44;5.20;99.90
3134;DHT22;1577;49.912;10.924;2023-03-05T09:31:10;5.20;99.90
3134;DHT22;1577;49.912;10.924;2023-03-05T09:33:36;5.20;99.90
3134;DHT22;1577;49.912;10.924;2023-03-05T09:36:02;5.30;99.90
3134;DHT22;1577;49.912;10.924;2023-03-05T09:38:28;5.40;99.90
3134;DHT22;1577;49.912;10.924;2023-03-05T09:41:04;5.40;99.90
3134;DHT22;1577;49.912;10.924;2023-03-05T09:43:57;5.50;99.90
3134;DHT22;1577;49.912;10.924;2023-03-05T09:46:46;5.60;99.90
3134;DHT22;1577;49.912;10.924;2023-03-05T09:51:53;5.80;99.90
3134;DHT22;1577;49.912;10.924;2023-03-05T09:54:41;5.80;99.90
3134;DHT22;1577;49.912;10.924;2023-03-05T09:57:14;5.70;99.90
3134;DHT22;1577;49.912;10.924;2023-03-05T09:59:45;5.50;99.90
3134;DHT22;1577;49.912;10.924;2023-03-05T10:02:34;5.40;99.90
3134;DHT22;1577;49.912;10.924;2023-03-05T10:05:21;5.30;99.90
3134;DHT22;1577;49.912;10.924;2023-03-05T10:07:56;5.30;99.90
3134;DHT22;1577;49.912;10.924;2023-03-05T10:10:27;5.30;99.90
3134;DHT22;1577;49.912;10.924;2023-03-05T10:13:01;5.40;99.90
3134;DHT22;1577;49.912;10.924;2023-03-05T10:15:46;5.50;99.90
3134;DHT22;1577;49.912;10.924;2023-03-05T10:21:03;5.70;99.90
3134;DHT22;1577;49.912;10.924;2023-03-05T10:29:56;5.80;99.90
3134;DHT22;1577;49.912;10.924;2023-03-05T10:32:42;5.90;99.90
3134;DHT22;1577;49.912;10.924;2023-03-05T10:45:46;6.50;99.90
3134;DHT22;1577;49.912;10.924;2023-03-05T10:50:52;6.60;99.90
3134;DHT22;1577;49.912;10.924;2023-03-05T10:53:27;6.80;99.90
3134;DHT22;1577;49.912;10.924;2023-03-05T10:55:53;6.90;99.90
3134;DHT22;1577;49.912;10.924;2023-03-05T10:58:22;6.90;99.90
3134;DHT22;1577;49.912;10.924;2023-03-05T11:03:57;7.00;99.00
3134;DHT22;1577;49.912;10.924;2023-03-05T11:09:27;7.00;98.80
3134;DHT22;1577;49.912;10.924;2023-03-05T11:14:29;7.10;98.30
3134;DHT22;1577;49.912;10.924;2023-03-05T11:17:01;7.10;97.80
3134;DHT22;1577;49.912;10.924;2023-03-05T11:24:39;6.70;98.60
3134;DHT22;1577;49.912;10.924;2023-03-05T11:29:53;6.60;98.50
3134;DHT22;1577;49.912;10.924;2023-03-05T11:32:24;6.60;98.60
3134;DHT22;1577;49.912;10.924;2023-03-05T11:34:53;6.60;98.50
3134;DHT22;1577;49.912;10.924;2023-03-05T11:37:29;6.50;98.70
3134;DHT22;1577;49.912;10.924;2023-03-05T11:40:19;6.40;98.50
3134;DHT22;1577;49.912;10.924;2023-03-05T11:42:53;6.40;99.10
3134;DHT22;1577;49.912;10.924;2023-03-05T11:45:20;6.30;98.90
3134;DHT22;1577;49.912;10.924;2023-03-05T11:48:01;6.40;98.90
3134;DHT22;1577;49.912;10.924;2023-03-05T11:50:33;6.50;98.80
3134;DHT22;1577;49.912;10.924;2023-03-05T11:53:08;6.60;98.60
3134;DHT22;1577;49.912;10.924;2023-03-05T11:55:48;6.70;98.10
3134;DHT22;1577;49.912;10.924;2023-03-05T11:58:37;6.80;97.70
3134;DHT22;1577;49.912;10.924;2023-03-05T12:01:14;6.90;97.60
3134;DHT22;1577;49.912;10.924;2023-03-05T12:03:41;6.80;97.40
3134;DHT22;1577;49.912;10.924;2023-03-05T12:06:44;6.80;97.50
3134;DHT22;1577;49.912;10.924;2023-03-05T12:09:41;6.80;97.50
3134;DHT22;1577;49.912;10.924;2023-03-05T12:14:55;6.70;97.50
3134;DHT22;1577;49.912;10.924;2023-03-05T12:17:32;6.70;97.00
3134;DHT22;1577;49.912;10.924;2023-03-05T12:20:11;6.70;97.20
3134;DHT22;1577;49.912;10.924;2023-03-05T12:22:40;6.60;97.10
3134;DHT22;1577;49.912;10.924;2023-03-05T12:25:33;6.50;97.10
3134;DHT22;1577;49.912;10.924;2023-03-05T12:28:00;6.40;97.40
3134;DHT22;1577;49.912;10.924;2023-03-05T12:33:30;6.30;97.40
3134;DHT22;1577;49.912;10.924;2023-03-05T12:38:56;6.20;97.40
3134;DHT22;1577;49.912;10.924;2023-03-05T12:51:48;6.30;98.20
3134;DHT22;1577;49.912;10.924;2023-03-05T12:57:03;6.30;98.40
3134;DHT22;1577;49.912;10.924;2023-03-05T12:59:49;6.20;98.40
3134;DHT22;1577;49.912;10.924;2023-03-05T13:02:41;6.20;98.50
3134;DHT22;1577;49.912;10.924;2023-03-05T13:10:39;6.30;98.40
3134;DHT22;1577;49.912;10.924;2023-03-05T13:13:05;6.40;98.10
3134;DHT22;1577;49.912;10.924;2023-03-05T13:15:31;6.50;98.30
3134;DHT22;1577;49.912;10.924;2023-03-05T13:18:03;6.60;98.00
3134;DHT22;1577;49.912;10.924;2023-03-05T13:20:40;6.60;97.70
3134;DHT22;1577;49.912;10.924;2023-03-05T13:25:39;6.50;97.80
3134;DHT22;1577;49.912;10.924;2023-03-05T13:28:13;6.50;98.00
3134;DHT22;1577;49.912;10.924;2023-03-05T13:30:50;6.50;98.10
3134;DHT22;1577;49.912;10.924;2023-03-05T13:33:29;6.50;98.10
3134;DHT22;1577;49.912;10.924;2023-03-05T13:35:55;6.40;98.30
3134;DHT22;1577;49.912;10.924;2023-03-05T13:38:32;6.50;98.60
3134;DHT22;1577;49.912;10.924;2023-03-05T13:41:23;6.50;98.60
3134;DHT22;1577;49.912;10.924;2023-03-05T13:43:53;6.40;98.80
3134;DHT22;1577;49.912;10.924;2023-03-05T13:48:51;6.40;99.20
3134;DHT22;1577;49.912;10.924;2023-03-05T13:51:17;6.40;99.30
3134;DHT22;1577;49.912;10.924;2023-03-05T13:53:43;6.40;99.20
3134;DHT22;1577;49.912;10.924;2023-03-05T13:56:14;6.30;99.60
3134;DHT22;1577;49.912;10.924;2023-03-05T13:58:53;6.30;99.10
3134;DHT22;1577;49.912;10.924;2023-03-05T14:01:41;6.30;99.20
3134;DHT22;1577;49.912;10.924;2023-03-05T14:09:25;6.20;98.90
3134;DHT22;1577;49.912;10.924;2023-03-05T14:12:05;6.20;99.10
3134;DHT22;1577;49.912;10.924;2023-03-05T14:14:39;6.20;99.20
3134;DHT22;1577;49.912;10.924;2023-03-05T14:17:31;6.10;98.60
3134;DHT22;1577;49.912;10.924;2023-03-05T14:20:25;6.00;98.40
3134;DHT22;1577;49.912;10.924;2023-03-05T14:22:57;5.90;98.60
3134;DHT22;1577;49.912;10.924;2023-03-05T14:27:55;5.80;98.80
3134;DHT22;1577;49.912;10.924;2023-03-05T14:30:24;5.80;98.80
3134;DHT22;1577;49.912;10.924;2023-03-05T14:32:51;5.90;99.00
3134;DHT22;1577;49.912;10.924;2023-03-05T14:35:21;5.90;98.90
3134;DHT22;1577;49.912;10.924;2023-03-05T14:37:48;5.80;99.00
3134;DHT22;1577;49.912;10.924;2023-03-05T14:40:19;5.80;99.00
3134;DHT22;1577;49.912;10.924;2023-03-05T14:43:08;5.80;99.00
3134;DHT22;1577;49.912;10.924;2023-03-05T14:45:39;5.80;99.00
3134;DHT22;1577;49.912;10.924;2023-03-05T14:48:10;5.70;99.20
3134;DHT22;1577;49.912;10.924;2023-03-05T14:50:44;5.70;99.40
3134;DHT22;1577;49.912;10.924;2023-03-05T14:55:47;5.50;99.60
3134;DHT22;1577;49.912;10.924;2023-03-05T14:58:19;5.40;99.60
3134;DHT22;1577;49.912;10.924;2023-03-05T15:00:47;5.40;99.90
3134;DHT22;1577;49.912;10.924;2023-03-05T15:03:15;5.40;99.90
3134;DHT22;1577;49.912;10.924;2023-03-05T15:05:41;5.50;99.90
3134;DHT22;1577;49.912;10.924;2023-03-05T15:08:14;5.50;99.90
3134;DHT22;1577;49.912;10.924;2023-03-05T15:10:41;5.50;99.80
3134;DHT22;1577;49.912;10.924;2023-03-05T15:13:07;5.40;99.70
3134;DHT22;1577;49.912;10.924;2023-03-05T15:15:33;5.40;99.80
3134;DHT22;1577;49.912;10.924;2023-03-05T15:17:59;5.30;99.90
3134;DHT22;1577;49.912;10.924;2023-03-05T15:20:27;5.30;99.90
3134;DHT22;1577;49.912;10.924;2023-03-05T15:22:54;5.30;99.90
3134;DHT22;1577;49.912;10.924;2023-03-05T15:25:21;5.30;99.90
3134;DHT22;1577;49.912;10.924;2023-03-05T15:27:48;5.30;99.90
3134;DHT22;1577;49.912;10.924;2023-03-05T15:30:25;5.30;99.90
3134;DHT22;1577;49.912;10.924;2023-03-05T15:32:53;5.30;99.90
3134;DHT22;1577;49.912;10.924;2023-03-05T15:35:19;5.20;99.90
3134;DHT22;1577;49.912;10.924;2023-03-05T15:37:44;5.20;99.90
3134;DHT22;1577;49.912;10.924;2023-03-05T15:40:11;5.20;99.90
3134;DHT22;1577;49.912;10.924;2023-03-05T15:42:36;5.20;99.90
3134;DHT22;1577;49.912;10.924;2023-03-05T15:45:02;5.10;99.90
3134;DHT22;1577;49.912;10.924;2023-03-05T15:47:28;5.10;99.90
3134;DHT22;1577;49.912;10.924;2023-03-05T15:49:54;5.10;99.90
3134;DHT22;1577;49.912;10.924;2023-03-05T15:52:19;5.10;99.90
3134;DHT22;1577;49.912;10.924;2023-03-05T15:54:50;5.10;99.90
3134;DHT22;1577;49.912;10.924;2023-03-05T15:57:19;5.10;99.90
3134;DHT22;1577;49.912;10.924;2023-03-05T15:59:48;5.00;99.90
3134;DHT22;1577;49.912;10.924;2023-03-05T16:05:06;5.00;99.90
3134;DHT22;1577;49.912;10.924;2023-03-05T16:07:34;5.00;99.90
3134;DHT22;1577;49.912;10.924;2023-03-05T16:10:02;5.00;99.90
3134;DHT22;1577;49.912;10.924;2023-03-05T16:12:34;4.90;99.90
3134;DHT22;1577;49.912;10.924;2023-03-05T16:15:14;4.90;99.90
3134;DHT22;1577;49.912;10.924;2023-03-05T16:17:41;4.90;99.90
3134;DHT22;1577;49.912;10.924;2023-03-05T16:20:09;5.00;99.90
3134;DHT22;1577;49.912;10.924;2023-03-05T16:22:41;4.90;99.90
3134;DHT22;1577;49.912;10.924;2023-03-05T16:25:07;5.00;99.90
3134;DHT22;1577;49.912;10.924;2023-03-05T16:27:33;4.90;99.90
3134;DHT22;1577;49.912;10.924;2023-03-05T16:30:05;4.90;99.90
3134;DHT22;1577;49.912;10.924;2023-03-05T16:32:31;4.90;99.90
3134;DHT22;1577;49.912;10.924;2023-03-05T16:34:57;4.90;99.90
3134;DHT22;1577;49.912;10.924;2023-03-05T16:37:23;4.90;99.90
3134;DHT22;1577;49.912;10.924;2023-03-05T16:39:49;4.80;99.90
3134;DHT22;1577;49.912;10.924;2023-03-05T16:42:15;4.80;99.90
3134;DHT22;1577;49.912;10.924;2023-03-05T16:44:42;4.80;99.90
3134;DHT22;1577;49.912;10.924;2023-03-05T16:47:11;4.70;99.90
3134;DHT22;1577;49.912;10.924;2023-03-05T16:49:40;4.70;99.90
3134;DHT22;1577;49.912;10.924;2023-03-05T16:52:06;4.70;99.90
3134;DHT22;1577;49.912;10.924;2023-03-05T16:54:32;4.60;99.90
3134;DHT22;1577;49.912;10.924;2023-03-05T16:56:58;4.70;99.90
3134;DHT22;1577;49.912;10.924;2023-03-05T16:59:25;4.60;99.90
3134;DHT22;1577;49.912;10.924;2023-03-05T17:01:51;4.60;99.90
3134;DHT22;1577;49.912;10.924;2023-03-05T17:04:16;4.70;99.90
3134;DHT22;1577;49.912;10.924;2023-03-05T17:06:46;4.70;99.90
3134;DHT22;1577;49.912;10.924;2023-03-05T17:09:13;4.70;99.90
3134;DHT22;1577;49.912;10.924;2023-03-05T17:11:39;4.70;99.90
3134;DHT22;1577;49.912;10.924;2023-03-05T17:14:05;4.70;99.90
3134;DHT22;1577;49.912;10.924;2023-03-05T17:16:31;4.60;99.90
3134;DHT22;1577;49.912;10.924;2023-03-05T17:19:00;4.60;99.90
3134;DHT22;1577;49.912;10.924;2023-03-05T17:21:34;4.60;99.90
3134;DHT22;1577;49.912;10.924;2023-03-05T17:24:02;4.60;99.90
3134;DHT22;1577;49.912;10.924;2023-03-05T17:26:28;4.60;99.90
3134;DHT22;1577;49.912;10.924;2023-03-05T17:28:57;4.60;99.90
3134;DHT22;1577;49.912;10.924;2023-03-05T17:31:23;4.60;99.90
3134;DHT22;1577;49.912;10.924;2023-03-05T17:33:49;4.60;99.90
3134;DHT22;1577;49.912;10.924;2023-03-05T17:36:17;4.60;99.90
3134;DHT22;1577;49.912;10.924;2023-03-05T17:38:44;4.60;99.90
3134;DHT22;1577;49.912;10.924;2023-03-05T17:41:10;4.60;99.90
3134;DHT22;1577;49.912;10.924;2023-03-05T17:43:36;4.60;99.90
3134;DHT22;1577;49.912;10.924;2023-03-05T17:46:02;4.60;99.90
3134;DHT22;1577;49.912;10.924;2023-03-05T17:48:27;4.60;99.90